createdAt,value
2019-03-22T00:00:22.447Z,93.70
2019-03-22T00:02:51.014Z,93.90
2019-03-22T00:05:19.559Z,93.90
2019-03-22T00:07:48.744Z,93.70
2019-03-22T00:10:17.485Z,94.20
2019-03-22T00:12:46.036Z,94.10
2019-03-22T00:15:15.478Z,94.30
2019-03-22T00:17:44.120Z,94.20
2019-03-22T00:20:12.802Z,94.70
2019-03-22T00:22:41.358Z,93.70
2019-03-22T00:25:10.064Z,93.80
2019-03-22T00:27:38.680Z,93.50
2019-03-22T00:30:08.867Z,94.00
2019-03-22T00:32:37.507Z,93.40
2019-03-22T00:35:07.768Z,93.20
2019-03-22T00:37:36.310Z,93.30
2019-03-22T00:40:28.905Z,93.00
2019-03-22T00:42:57.446Z,93.20
2019-03-22T00:45:25.999Z,93.30
2019-03-22T00:47:54.907Z,93.80
2019-03-22T00:50:23.592Z,93.70
2019-03-22T00:52:52.168Z,94.40
2019-03-22T00:55:20.960Z,94.70
2019-03-22T00:57:49.850Z,94.90
2019-03-22T01:00:18.501Z,94.90
2019-03-22T01:02:47.216Z,94.90
2019-03-22T01:05:16.549Z,95.00
2019-03-22T01:07:45.164Z,95.40
2019-03-22T01:10:14.549Z,95.40
2019-03-22T01:12:43.251Z,94.50
2019-03-22T01:15:14.504Z,95.50
2019-03-22T01:17:43.328Z,94.70
2019-03-22T01:20:12.910Z,94.40
2019-03-22T01:22:41.516Z,94.30
2019-03-22T01:25:11.314Z,94.30
2019-03-22T01:27:41.320Z,94.60
2019-03-22T01:30:15.178Z,94.40
2019-03-22T01:32:44.036Z,94.40
2019-03-22T01:35:12.814Z,94.30
2019-03-22T01:37:41.366Z,94.60
2019-03-22T01:40:30.878Z,94.80
2019-03-22T01:42:59.570Z,95.00
2019-03-22T01:45:28.220Z,96.20
2019-03-22T01:47:57.135Z,96.40
2019-03-22T01:50:26.031Z,96.20
2019-03-22T01:52:54.672Z,95.90
2019-03-22T01:55:23.289Z,95.90
2019-03-22T01:57:53.514Z,95.80
2019-03-22T02:00:22.352Z,95.80
2019-03-22T02:02:50.870Z,95.70
2019-03-22T02:05:19.671Z,96.20
2019-03-22T02:07:48.325Z,96.00
2019-03-22T02:10:17.496Z,96.70
2019-03-22T02:12:46.119Z,97.10
2019-03-22T02:15:17.536Z,97.90
2019-03-22T02:17:46.149Z,97.30
2019-03-22T02:20:17.312Z,96.70
2019-03-22T02:22:46.006Z,96.30
2019-03-22T02:25:35.688Z,96.20
2019-03-22T02:28:04.668Z,95.80
2019-03-22T02:30:33.404Z,96.00
2019-03-22T02:33:01.987Z,95.90
2019-03-22T02:35:30.529Z,96.00
2019-03-22T02:37:59.067Z,96.10
2019-03-22T02:40:27.712Z,96.50
2019-03-22T02:42:56.335Z,97.20
2019-03-22T02:45:24.891Z,96.60
2019-03-22T02:47:53.456Z,97.80
2019-03-22T02:50:22.423Z,97.50
2019-03-22T02:52:52.199Z,96.90
2019-03-22T02:55:20.744Z,96.80
2019-03-22T02:57:49.284Z,96.50
2019-03-22T03:00:19.023Z,96.40
2019-03-22T03:02:47.625Z,97.20
2019-03-22T03:05:16.701Z,97.00
2019-03-22T03:07:46.277Z,97.20
2019-03-22T03:10:34.275Z,96.80
2019-03-22T03:13:02.050Z,96.70
2019-03-22T03:15:30.661Z,96.30
2019-03-22T03:17:59.231Z,96.10
2019-03-22T03:20:27.798Z,98.30
2019-03-22T03:22:56.412Z,98.40
2019-03-22T03:25:24.967Z,97.50
2019-03-22T03:27:53.799Z,97.10
2019-03-22T03:30:22.620Z,97.10
2019-03-22T03:32:51.173Z,97.10
2019-03-22T03:35:19.957Z,97.20
2019-03-22T03:37:48.688Z,97.30
2019-03-22T03:40:17.377Z,97.50
2019-03-22T03:42:46.059Z,97.60
2019-03-22T03:45:29.479Z,97.50
2019-03-22T03:47:59.352Z,97.50
2019-03-22T03:50:27.967Z,97.70
2019-03-22T03:52:56.612Z,98.20
2019-03-22T03:55:25.159Z,98.50
2019-03-22T03:57:53.719Z,98.80
2019-03-22T04:00:22.292Z,98.60
2019-03-22T04:02:50.911Z,99.10
2019-03-22T04:05:19.741Z,98.80
2019-03-22T04:07:48.332Z,98.60
2019-03-22T04:10:16.945Z,98.50
2019-03-22T04:12:45.547Z,98.30
2019-03-22T04:15:14.516Z,98.10
2019-03-22T04:17:43.049Z,98.00
2019-03-22T04:20:11.847Z,98.00
2019-03-22T04:22:40.532Z,98.10
2019-03-22T04:27:58.472Z,98.10
2019-03-22T04:30:27.011Z,99.80
2019-03-22T04:32:55.551Z,99.90
2019-03-22T04:35:24.130Z,99.90
2019-03-22T04:37:52.671Z,99.70
2019-03-22T04:40:25.862Z,99.90
2019-03-22T04:42:54.901Z,99.10
2019-03-22T04:45:25.717Z,98.90
2019-03-22T04:48:15.407Z,98.80
2019-03-22T04:50:46.194Z,98.70
2019-03-22T04:53:27.748Z,98.70
2019-03-22T04:55:59.355Z,98.50
2019-03-22T04:58:30.214Z,98.70
2019-03-22T05:01:19.637Z,99.40
2019-03-22T05:03:48.643Z,99.40
2019-03-22T05:06:19.035Z,99.00
2019-03-22T05:08:49.626Z,98.70
2019-03-22T05:11:21.165Z,98.50
2019-03-22T05:13:52.776Z,98.50
2019-03-22T05:16:42.225Z,98.50
2019-03-22T05:19:12.361Z,98.50
2019-03-22T05:22:01.821Z,98.50
2019-03-22T05:24:32.634Z,98.50
2019-03-22T05:27:01.945Z,99.00
2019-03-22T05:29:51.362Z,99.40
2019-03-22T05:32:19.991Z,99.50
2019-03-22T05:34:48.643Z,99.70
2019-03-22T05:37:17.218Z,99.60
2019-03-22T05:39:45.751Z,99.30
2019-03-22T05:42:14.298Z,99.30
2019-03-22T05:45:02.255Z,99.30
2019-03-22T05:47:30.005Z,99.30
2019-03-22T05:49:58.820Z,99.90
2019-03-22T05:52:27.397Z,99.60
2019-03-22T05:54:55.931Z,99.20
2019-03-22T05:57:24.419Z,98.80
2019-03-22T05:59:53.248Z,98.40
2019-03-22T06:02:22.130Z,98.40
2019-03-22T06:04:50.678Z,98.10
2019-03-22T06:07:19.257Z,97.70
2019-03-22T06:09:47.796Z,98.20
2019-03-22T06:12:16.341Z,97.90
2019-03-22T06:14:45.557Z,97.20
2019-03-22T06:17:14.064Z,97.20
2019-03-22T06:19:42.928Z,96.80
2019-03-22T06:22:11.738Z,96.60
2019-03-22T06:24:40.730Z,97.00
2019-03-22T06:27:09.453Z,96.60
2019-03-22T06:29:38.097Z,96.50
2019-03-22T06:32:06.750Z,95.90
2019-03-22T06:34:35.316Z,95.60
2019-03-22T06:37:04.957Z,95.00
2019-03-22T06:39:33.539Z,94.60
2019-03-22T06:42:03.148Z,94.40
2019-03-22T06:44:31.847Z,94.00
2019-03-22T06:47:00.464Z,93.50
2019-03-22T06:49:29.302Z,93.50
2019-03-22T06:51:58.291Z,93.00
2019-03-22T06:54:31.812Z,92.00
2019-03-22T06:56:57.086Z,90.90
2019-03-22T06:59:25.984Z,88.30
2019-03-22T07:01:54.630Z,82.70
2019-03-22T07:04:23.397Z,80.20
2019-03-22T07:06:52.031Z,80.60
2019-03-22T07:09:20.603Z,79.00
2019-03-22T07:11:49.221Z,76.10
2019-03-22T07:14:17.794Z,73.60
2019-03-22T07:16:46.411Z,71.70
2019-03-22T07:19:14.878Z,72.10
2019-03-22T07:21:43.531Z,69.20
2019-03-22T07:24:12.159Z,69.90
2019-03-22T07:26:40.784Z,67.10
2019-03-22T07:29:09.360Z,65.70
2019-03-22T07:31:38.174Z,64.20
2019-03-22T07:34:06.722Z,63.30
2019-03-22T07:36:35.218Z,63.70
2019-03-22T07:39:05.323Z,63.30
2019-03-22T07:41:33.867Z,62.50
2019-03-22T07:44:02.535Z,61.30
2019-03-22T07:46:31.075Z,60.00
2019-03-22T07:48:59.626Z,57.50
2019-03-22T07:51:28.211Z,54.20
2019-03-22T07:53:56.797Z,52.20
2019-03-22T07:56:25.355Z,52.90
2019-03-22T07:58:53.932Z,50.90
2019-03-22T08:01:22.554Z,52.60
2019-03-22T08:03:51.387Z,51.50
2019-03-22T08:06:20.379Z,49.90
2019-03-22T08:08:49.285Z,50.80
2019-03-22T08:11:17.901Z,51.50
2019-03-22T08:13:46.415Z,50.60
2019-03-22T08:16:15.128Z,50.50
2019-03-22T08:18:43.698Z,49.30
2019-03-22T08:21:12.244Z,47.30
2019-03-22T08:23:41.109Z,48.10
2019-03-22T08:26:09.650Z,49.80
2019-03-22T08:28:38.227Z,46.00
2019-03-22T08:31:06.871Z,47.50
2019-03-22T08:33:35.437Z,41.50
2019-03-22T08:36:05.335Z,41.70
2019-03-22T08:38:33.926Z,42.20
2019-03-22T08:41:02.496Z,42.30
2019-03-22T08:43:31.049Z,41.00
2019-03-22T08:45:59.797Z,40.00
2019-03-22T08:48:28.356Z,40.20
2019-03-22T08:50:56.891Z,39.60
2019-03-22T08:53:25.802Z,37.10
2019-03-22T08:55:54.395Z,34.70
2019-03-22T08:58:22.956Z,37.30
2019-03-22T09:00:57.348Z,37.10
2019-03-22T09:03:21.862Z,36.70
2019-03-22T09:05:50.394Z,34.50
2019-03-22T09:08:18.932Z,35.00
2019-03-22T09:10:47.583Z,34.40
2019-03-22T09:13:16.149Z,35.40
2019-03-22T09:15:44.774Z,32.90
2019-03-22T09:18:15.534Z,33.60
2019-03-22T09:20:43.899Z,33.10
2019-03-22T09:23:12.459Z,34.30
2019-03-22T09:25:41.042Z,33.50
2019-03-22T09:28:10.485Z,34.30
2019-03-22T09:30:39.246Z,34.80
2019-03-22T09:33:07.814Z,34.00
2019-03-22T09:35:36.443Z,38.80
2019-03-22T09:38:12.702Z,33.90
2019-03-22T09:40:35.292Z,33.20
2019-03-22T09:43:04.456Z,34.80
2019-03-22T09:45:33.099Z,32.70
2019-03-22T09:48:01.681Z,32.00
2019-03-22T09:50:30.278Z,32.80
2019-03-22T09:52:58.789Z,32.00
2019-03-22T09:55:27.369Z,32.00
2019-03-22T09:57:55.922Z,32.30
2019-03-22T10:00:32.367Z,33.80
2019-03-22T10:03:01.837Z,31.30
2019-03-22T10:05:30.679Z,31.00
2019-03-22T10:07:59.334Z,30.70
2019-03-22T10:10:28.246Z,30.00
2019-03-22T10:12:57.019Z,30.20
2019-03-22T10:15:26.238Z,30.70
2019-03-22T10:17:54.843Z,31.70
2019-03-22T10:20:23.351Z,31.30
2019-03-22T10:22:52.303Z,33.00
2019-03-22T10:25:20.944Z,34.10
2019-03-22T10:27:49.672Z,33.40
2019-03-22T10:30:19.124Z,31.30
2019-03-22T10:32:47.994Z,30.20
2019-03-22T10:35:26.080Z,34.10
2019-03-22T10:37:46.894Z,33.40
2019-03-22T10:40:15.679Z,33.10
2019-03-22T10:42:44.268Z,33.60
2019-03-22T10:45:12.952Z,33.20
2019-03-22T10:47:41.548Z,31.50
2019-03-22T10:50:10.628Z,33.30
2019-03-22T10:52:39.211Z,33.20
2019-03-22T10:55:28.519Z,34.20
2019-03-22T10:57:40.287Z,34.20
2019-03-22T11:00:14.419Z,36.00
2019-03-22T11:02:43.058Z,36.40
2019-03-22T11:05:13.656Z,34.30
2019-03-22T11:07:42.217Z,34.70
2019-03-22T11:10:13.666Z,33.80
2019-03-22T11:12:42.434Z,34.40
2019-03-22T11:15:13.150Z,34.00
2019-03-22T11:17:42.095Z,36.00
2019-03-22T11:20:16.803Z,34.70
2019-03-22T11:22:45.536Z,35.20
2019-03-22T11:25:14.803Z,34.40
2019-03-22T11:27:43.385Z,36.80
2019-03-22T11:30:32.802Z,34.40
2019-03-22T11:33:01.378Z,35.50
2019-03-22T11:35:29.998Z,36.40
2019-03-22T11:37:58.921Z,35.80
2019-03-22T11:40:27.627Z,36.40
2019-03-22T11:42:56.250Z,35.30
2019-03-22T11:45:24.955Z,35.10
2019-03-22T11:47:53.668Z,37.60
2019-03-22T11:50:22.467Z,36.30
2019-03-22T11:52:51.218Z,36.80
2019-03-22T11:55:21.845Z,35.70
2019-03-22T11:57:50.419Z,38.20
2019-03-22T12:00:26.644Z,38.20
2019-03-22T12:02:55.223Z,37.10
2019-03-22T12:05:24.617Z,35.50
2019-03-22T12:07:54.723Z,34.40
2019-03-22T12:10:23.706Z,34.30
2019-03-22T12:12:52.247Z,35.20
2019-03-22T12:15:24.557Z,38.60
2019-03-22T12:17:53.244Z,35.20
2019-03-22T12:20:23.934Z,35.10
2019-03-22T12:22:53.378Z,36.30
2019-03-22T12:25:26.064Z,37.10
2019-03-22T12:27:54.947Z,36.00
2019-03-22T12:30:23.618Z,35.70
2019-03-22T12:32:52.301Z,33.70
2019-03-22T12:35:22.337Z,34.10
2019-03-22T12:37:51.227Z,35.00
2019-03-22T12:40:21.630Z,34.50
2019-03-22T12:42:50.515Z,34.50
2019-03-22T12:45:42.943Z,34.20
2019-03-22T12:48:11.479Z,35.80
2019-03-22T12:50:40.676Z,33.00
2019-03-22T12:53:09.246Z,33.70
2019-03-22T12:55:37.787Z,34.20
2019-03-22T12:58:06.816Z,34.70
2019-03-22T13:00:35.355Z,33.40
2019-03-22T13:03:04.388Z,34.10
2019-03-22T13:05:33.379Z,33.20
2019-03-22T13:08:01.920Z,33.30
2019-03-22T13:10:30.563Z,33.50
2019-03-22T13:12:59.100Z,34.80
2019-03-22T13:15:27.912Z,34.70
2019-03-22T13:17:56.803Z,32.40
2019-03-22T13:20:25.427Z,36.40
2019-03-22T13:22:55.361Z,32.60
2019-03-22T13:25:23.996Z,33.20
2019-03-22T13:27:52.546Z,32.70
2019-03-22T13:30:48.144Z,33.50
2019-03-22T13:33:16.708Z,33.00
2019-03-22T13:35:48.048Z,33.70
2019-03-22T13:38:16.587Z,33.80
2019-03-22T13:40:46.772Z,30.60
2019-03-22T13:43:15.807Z,32.90
2019-03-22T13:45:44.418Z,33.80
2019-03-22T13:48:12.989Z,32.20
2019-03-22T13:50:41.655Z,32.10
2019-03-22T13:53:10.220Z,32.90
2019-03-22T13:55:38.768Z,31.90
2019-03-22T13:58:07.327Z,32.10
2019-03-22T14:00:36.020Z,31.30
2019-03-22T14:03:04.597Z,32.90
2019-03-22T14:05:33.144Z,33.40
2019-03-22T14:08:02.283Z,32.00
2019-03-22T14:10:32.958Z,31.90
2019-03-22T14:13:02.827Z,33.40
2019-03-22T14:15:31.422Z,32.70
2019-03-22T14:18:00.744Z,32.90
2019-03-22T14:20:30.351Z,32.20
2019-03-22T14:22:59.272Z,32.80
2019-03-22T14:25:27.932Z,32.10
2019-03-22T14:27:56.485Z,32.50
2019-03-22T14:30:25.183Z,32.30
2019-03-22T14:32:54.472Z,31.40
2019-03-22T14:35:23.011Z,31.70
2019-03-22T14:37:51.901Z,31.30
2019-03-22T14:40:20.782Z,31.90
2019-03-22T14:42:49.341Z,31.30
2019-03-22T14:45:18.335Z,33.10
2019-03-22T14:48:00.114Z,31.60
2019-03-22T14:50:28.770Z,34.80
2019-03-22T14:52:57.303Z,33.60
2019-03-22T14:55:25.846Z,31.40
2019-03-22T14:57:54.434Z,33.30
2019-03-22T15:00:22.993Z,32.50
2019-03-22T15:02:51.546Z,32.10
2019-03-22T15:05:20.539Z,33.50
2019-03-22T15:07:49.090Z,32.40
2019-03-22T15:10:18.118Z,33.40
2019-03-22T15:12:47.002Z,32.90
2019-03-22T15:15:20.412Z,32.10
2019-03-22T15:18:09.084Z,32.20
2019-03-22T15:20:48.697Z,32.20
2019-03-22T15:23:35.203Z,32.00
2019-03-22T15:26:11.496Z,32.90
2019-03-22T15:28:47.185Z,34.00
2019-03-22T15:31:17.361Z,33.40
2019-03-22T15:34:04.658Z,33.20
2019-03-22T15:36:37.032Z,33.60
2019-03-22T15:39:12.203Z,33.40
2019-03-22T15:41:40.931Z,33.30
2019-03-22T15:44:09.662Z,33.60
2019-03-22T15:46:38.188Z,33.50
2019-03-22T15:49:07.434Z,34.00
2019-03-22T15:51:36.003Z,33.00
2019-03-22T15:54:05.085Z,35.00
2019-03-22T15:56:33.898Z,34.60
2019-03-22T15:59:02.445Z,33.90
2019-03-22T16:01:31.002Z,34.20
2019-03-22T16:03:59.648Z,34.50
2019-03-22T16:06:28.612Z,35.00
2019-03-22T16:08:57.191Z,36.40
2019-03-22T16:11:25.726Z,36.20
2019-03-22T16:13:54.570Z,35.80
2019-03-22T16:16:23.152Z,36.10
2019-03-22T16:18:51.702Z,36.70
2019-03-22T16:21:20.271Z,36.50
2019-03-22T16:23:48.820Z,37.10
2019-03-22T16:26:17.374Z,37.10
2019-03-22T16:28:45.955Z,37.10
2019-03-22T16:31:14.501Z,37.60
2019-03-22T16:33:43.082Z,37.60
2019-03-22T16:36:11.666Z,37.50
2019-03-22T16:38:40.230Z,37.50
2019-03-22T16:41:09.083Z,38.30
2019-03-22T16:43:37.659Z,38.40
2019-03-22T16:46:06.284Z,38.60
2019-03-22T16:48:34.929Z,38.30
2019-03-22T16:51:03.549Z,38.60
2019-03-22T16:53:32.166Z,38.30
2019-03-22T16:56:00.848Z,39.30
2019-03-22T16:58:29.473Z,39.50
2019-03-22T17:00:58.199Z,39.90
2019-03-22T17:03:27.142Z,40.20
2019-03-22T17:05:56.038Z,40.10
2019-03-22T17:08:25.032Z,40.20
2019-03-22T17:10:53.597Z,41.10
2019-03-22T17:13:22.160Z,41.70
2019-03-22T17:15:50.729Z,41.90
2019-03-22T17:18:19.339Z,42.70
2019-03-22T17:20:47.850Z,43.20
2019-03-22T17:23:16.395Z,43.50
2019-03-22T17:25:45.018Z,43.80
2019-03-22T17:28:13.996Z,44.40
2019-03-22T17:30:42.543Z,44.50
2019-03-22T17:33:11.097Z,44.60
2019-03-22T17:35:40.514Z,45.80
2019-03-22T17:38:09.139Z,46.40
2019-03-22T17:40:37.775Z,47.60
2019-03-22T17:43:06.405Z,48.80
2019-03-22T17:45:35.302Z,49.80
2019-03-22T17:48:03.991Z,50.40
2019-03-22T17:50:32.566Z,50.70
2019-03-22T17:53:01.124Z,51.80
2019-03-22T17:55:33.239Z,52.00
2019-03-22T17:58:03.048Z,52.00
2019-03-22T18:00:31.731Z,52.50
2019-03-22T18:03:00.368Z,52.70
2019-03-22T18:05:29.007Z,52.70
2019-03-22T18:07:57.621Z,52.60
2019-03-22T18:10:28.459Z,52.40
2019-03-22T18:12:57.048Z,52.60
2019-03-22T18:15:25.666Z,53.10
2019-03-22T18:17:54.560Z,53.60
2019-03-22T18:20:23.094Z,54.20
2019-03-22T18:22:51.684Z,55.40
2019-03-22T18:25:20.511Z,57.20
2019-03-22T18:27:49.149Z,59.00
2019-03-22T18:30:18.303Z,59.40
2019-03-22T18:32:47.183Z,59.90
2019-03-22T18:35:15.891Z,60.80
2019-03-22T18:37:45.373Z,61.20
2019-03-22T18:40:15.483Z,61.70
2019-03-22T18:42:44.098Z,62.80
2019-03-22T18:45:13.787Z,63.10
2019-03-22T18:47:43.409Z,64.00
2019-03-22T18:50:13.318Z,64.10
2019-03-22T18:52:41.901Z,64.10
2019-03-22T18:55:11.419Z,64.20
2019-03-22T18:57:40.038Z,65.50
2019-03-22T19:00:14.648Z,65.70
2019-03-22T19:02:43.347Z,66.20
2019-03-22T19:05:14.147Z,66.40
2019-03-22T19:07:55.157Z,66.90
2019-03-22T19:10:23.907Z,67.20
2019-03-22T19:12:53.832Z,67.10
2019-03-22T19:15:22.476Z,67.40
2019-03-22T19:17:51.026Z,67.90
2019-03-22T19:20:19.679Z,68.00
2019-03-22T19:22:48.558Z,68.20
2019-03-22T19:25:17.858Z,68.40
2019-03-22T19:27:46.567Z,68.80
2019-03-22T19:30:16.463Z,69.70
2019-03-22T19:32:45.077Z,69.60
2019-03-22T19:35:14.733Z,70.20
2019-03-22T19:37:43.738Z,71.00
2019-03-22T19:40:16.349Z,71.30
2019-03-22T19:42:45.396Z,71.50
2019-03-22T19:45:16.910Z,71.50
2019-03-22T19:47:45.622Z,72.10
2019-03-22T19:50:18.051Z,72.40
2019-03-22T19:52:47.302Z,72.40
2019-03-22T19:55:15.935Z,72.90
2019-03-22T19:57:44.502Z,73.00
2019-03-22T20:00:18.256Z,73.70
2019-03-22T20:02:49.108Z,74.40
2019-03-22T20:05:33.685Z,74.80
2019-03-22T20:08:02.500Z,74.60
2019-03-22T20:10:31.370Z,74.80
2019-03-22T20:13:00.140Z,75.30
2019-03-22T20:15:30.146Z,75.60
2019-03-22T20:17:58.923Z,75.10
2019-03-22T20:20:27.816Z,76.90
2019-03-22T20:22:56.395Z,75.60
2019-03-22T20:25:25.257Z,75.70
2019-03-22T20:27:53.865Z,76.20
2019-03-22T20:30:22.866Z,76.50
2019-03-22T20:32:51.486Z,76.30
2019-03-22T20:35:20.063Z,75.70
2019-03-22T20:37:48.968Z,77.00
2019-03-22T20:40:21.095Z,77.10
2019-03-22T20:42:50.012Z,77.60
2019-03-22T20:45:24.064Z,77.60
2019-03-22T20:47:50.035Z,78.00
2019-03-22T20:50:19.037Z,78.10
2019-03-22T20:52:47.556Z,79.00
2019-03-22T20:55:17.093Z,78.40
2019-03-22T20:57:46.391Z,78.70
2019-03-22T21:00:17.997Z,78.90
2019-03-22T21:02:47.230Z,80.00
2019-03-22T21:05:26.077Z,79.50
2019-03-22T21:07:46.962Z,80.00
2019-03-22T21:10:15.681Z,79.80
2019-03-22T21:12:45.002Z,81.20
2019-03-22T21:15:23.869Z,81.40
2019-03-22T21:17:45.567Z,81.90
2019-03-22T21:20:15.827Z,81.60
2019-03-22T21:22:44.778Z,81.40
2019-03-22T21:25:13.828Z,81.50
2019-03-22T21:27:42.554Z,82.70
2019-03-22T21:30:15.687Z,81.60
2019-03-22T21:32:45.934Z,82.10
2019-03-22T21:35:22.488Z,84.10
2019-03-22T21:37:45.110Z,82.90
2019-03-22T21:40:13.801Z,84.90
2019-03-22T21:42:42.706Z,83.80
2019-03-22T21:45:12.296Z,83.30
2019-03-22T21:47:40.857Z,84.40
2019-03-22T21:50:10.487Z,83.80
2019-03-22T21:52:39.122Z,83.90
2019-03-22T21:55:10.708Z,84.30
2019-03-22T21:57:39.257Z,84.10
2019-03-22T22:00:12.722Z,84.20
2019-03-22T22:02:41.464Z,84.30
2019-03-22T22:05:10.234Z,84.60
2019-03-22T22:07:39.186Z,84.90
2019-03-22T22:10:09.091Z,87.20
2019-03-22T22:12:37.892Z,86.20
2019-03-22T22:15:11.571Z,86.20
2019-03-22T22:17:41.288Z,86.00
2019-03-22T22:20:10.486Z,85.50
2019-03-22T22:22:39.185Z,85.40
2019-03-22T22:25:08.422Z,85.50
2019-03-22T22:27:37.367Z,85.70
2019-03-22T22:30:13.211Z,86.30
2019-03-22T22:32:41.912Z,86.50
2019-03-22T22:35:10.732Z,86.90
2019-03-22T22:37:39.595Z,87.50
2019-03-22T22:40:12.386Z,87.40
2019-03-22T22:42:40.938Z,87.70
2019-03-22T23:52:13.604Z,91.20
2019-03-22T23:54:48.730Z,91.50
